sensor_id;sensor_type;location;lat;lon;timestamp;pressure;altitude;pressure_sealevel;temperature;humidity
64253;BME280;50592;52.958;-7.470;2023-12-29T00:01:34;98896.00;;;6.73;100.00
64253;BME280;50592;52.958;-7.470;2023-12-29T00:04:03;98911.97;;;6.79;100.00
64253;BME280;50592;52.958;-7.470;2023-12-29T00:06:37;98902.63;;;6.85;100.00
64253;BME280;50592;52.958;-7.470;2023-12-29T00:09:32;98895.72;;;6.84;100.00
64253;BME280;50592;52.958;-7.470;2023-12-29T00:12:15;98904.91;;;6.80;100.00
64253;BME280;50592;52.958;-7.470;2023-12-29T00:14:43;98925.78;;;6.90;100.00
64253;BME280;50592;52.958;-7.470;2023-12-29T00:17:17;98917.56;;;6.85;100.00
64253;BME280;50592;52.958;-7.470;2023-12-29T00:19:46;98920.69;;;6.88;100.00
64253;BME280;50592;52.958;-7.470;2023-12-29T00:22:22;98935.66;;;6.88;100.00
64253;BME280;50592;52.958;-7.470;2023-12-29T00:25:13;98938.59;;;6.85;100.00
64253;BME280;50592;52.958;-7.470;2023-12-29T00:28:00;98939.53;;;6.75;100.00
64253;BME280;50592;52.958;-7.470;2023-12-29T00:31:03;98954.25;;;6.68;100.00
64253;BME280;50592;52.958;-7.470;2023-12-29T00:34:11;98959.13;;;6.63;100.00
64253;BME280;50592;52.958;-7.470;2023-12-29T00:37:21;98938.75;;;6.56;100.00
64253;BME280;50592;52.958;-7.470;2023-12-29T00:40:19;98924.72;;;6.39;100.00
64253;BME280;50592;52.958;-7.470;2023-12-29T00:43:01;98925.72;;;6.38;100.00
64253;BME280;50592;52.958;-7.470;2023-12-29T00:47:32;98934.66;;;6.27;100.00
64253;BME280;50592;52.958;-7.470;2023-12-29T00:50:28;98938.34;;;6.16;100.00
64253;BME280;50592;52.958;-7.470;2023-12-29T00:53:23;98928.97;;;6.14;100.00
64253;BME280;50592;52.958;-7.470;2023-12-29T01:00:26;98941.56;;;6.10;100.00
64253;BME280;50592;52.958;-7.470;2023-12-29T01:07:13;98932.81;;;6.19;100.00
64253;BME280;50592;52.958;-7.470;2023-12-29T01:10:26;98937.59;;;6.24;100.00
64253;BME280;50592;52.958;-7.470;2023-12-29T01:13:25;98944.47;;;6.25;100.00
64253;BME280;50592;52.958;-7.470;2023-12-29T01:16:23;98936.91;;;6.22;100.00
64253;BME280;50592;52.958;-7.470;2023-12-29T01:19:47;98949.28;;;6.30;100.00
64253;BME280;50592;52.958;-7.470;2023-12-29T01:22:27;98932.97;;;6.18;100.00
64253;BME280;50592;52.958;-7.470;2023-12-29T01:25:03;98919.47;;;6.13;100.00
64253;BME280;50592;52.958;-7.470;2023-12-29T01:28:05;98925.53;;;6.13;100.00
64253;BME280;50592;52.958;-7.470;2023-12-29T01:30:59;98923.22;;;6.10;100.00
64253;BME280;50592;52.958;-7.470;2023-12-29T01:36:47;98927.72;;;6.00;100.00
64253;BME280;50592;52.958;-7.470;2023-12-29T01:39:21;98940.97;;;5.98;100.00
64253;BME280;50592;52.958;-7.470;2023-12-29T01:41:50;98927.19;;;5.96;100.00
64253;BME280;50592;52.958;-7.470;2023-12-29T01:44:49;98933.78;;;6.00;100.00
64253;BME280;50592;52.958;-7.470;2023-12-29T01:47:34;98950.44;;;5.91;100.00
64253;BME280;50592;52.958;-7.470;2023-12-29T01:50:16;98952.91;;;5.92;100.00
64253;BME280;50592;52.958;-7.470;2023-12-29T01:52:44;98947.50;;;5.94;100.00
64253;BME280;50592;52.958;-7.470;2023-12-29T01:55:18;98947.50;;;5.94;100.00
64253;BME280;50592;52.958;-7.470;2023-12-29T01:57:48;98956.47;;;5.91;100.00
64253;BME280;50592;52.958;-7.470;2023-12-29T02:00:26;98966.16;;;5.91;100.00
64253;BME280;50592;52.958;-7.470;2023-12-29T02:03:06;98963.41;;;5.92;100.00
64253;BME280;50592;52.958;-7.470;2023-12-29T02:05:47;98971.25;;;5.92;100.00
64253;BME280;50592;52.958;-7.470;2023-12-29T02:08:46;98969.00;;;5.98;100.00
64253;BME280;50592;52.958;-7.470;2023-12-29T02:11:29;98971.25;;;5.92;100.00
64253;BME280;50592;52.958;-7.470;2023-12-29T02:14:01;98974.09;;;5.99;100.00
64253;BME280;50592;52.958;-7.470;2023-12-29T02:17:04;98975.75;;;6.00;100.00
64253;BME280;50592;52.958;-7.470;2023-12-29T02:19:41;98981.94;;;5.99;100.00
64253;BME280;50592;52.958;-7.470;2023-12-29T02:22:15;98979.47;;;5.98;100.00
64253;BME280;50592;52.958;-7.470;2023-12-29T02:25:18;98987.72;;;6.03;100.00
64253;BME280;50592;52.958;-7.470;2023-12-29T02:31:02;98991.78;;;6.15;100.00
64253;BME280;50592;52.958;-7.470;2023-12-29T02:33:50;99004.47;;;6.20;100.00
64253;BME280;50592;52.958;-7.470;2023-12-29T02:36:25;98996.72;;;6.18;100.00
64253;BME280;50592;52.958;-7.470;2023-12-29T02:38:55;98994.25;;;6.17;100.00
64253;BME280;50592;52.958;-7.470;2023-12-29T02:41:24;99007.22;;;6.18;100.00
64253;BME280;50592;52.958;-7.470;2023-12-29T02:44:01;99004.69;;;6.27;100.00
64253;BME280;50592;52.958;-7.470;2023-12-29T02:46:27;99015.78;;;6.20;100.00
64253;BME280;50592;52.958;-7.470;2023-12-29T02:48:56;99002.06;;;6.27;100.00
64253;BME280;50592;52.958;-7.470;2023-12-29T02:51:26;99011.09;;;6.32;100.00
64253;BME280;50592;52.958;-7.470;2023-12-29T02:54:03;99005.34;;;6.29;100.00
64253;BME280;50592;52.958;-7.470;2023-12-29T02:59:30;99013.56;;;6.34;100.00
64253;BME280;50592;52.958;-7.470;2023-12-29T03:01:56;99027.91;;;6.40;100.00
64253;BME280;50592;52.958;-7.470;2023-12-29T03:04:31;99021.97;;;6.38;100.00
64253;BME280;50592;52.958;-7.470;2023-12-29T03:07:03;99019.66;;;6.35;100.00
64253;BME280;50592;52.958;-7.470;2023-12-29T03:09:39;99022.81;;;6.20;100.00
64253;BME280;50592;52.958;-7.470;2023-12-29T03:12:08;99027.41;;;6.18;100.00
64253;BME280;50592;52.958;-7.470;2023-12-29T03:14:41;99026.88;;;6.14;100.00
64253;BME280;50592;52.958;-7.470;2023-12-29T03:17:13;99012.09;;;6.13;100.00
64253;BME280;50592;52.958;-7.470;2023-12-29T03:19:42;99021.41;;;6.07;100.00
64253;BME280;50592;52.958;-7.470;2023-12-29T03:22:10;99013.69;;;6.06;100.00
64253;BME280;50592;52.958;-7.470;2023-12-29T03:24:39;98998.59;;;5.90;100.00
64253;BME280;50592;52.958;-7.470;2023-12-29T03:27:08;98992.16;;;5.84;100.00
64253;BME280;50592;52.958;-7.470;2023-12-29T03:29:37;99006.97;;;5.75;100.00
64253;BME280;50592;52.958;-7.470;2023-12-29T03:32:04;99012.38;;;5.74;100.00
64253;BME280;50592;52.958;-7.470;2023-12-29T03:34:47;99016.72;;;5.65;100.00
64253;BME280;50592;52.958;-7.470;2023-12-29T03:37:23;99015.63;;;5.57;100.00
64253;BME280;50592;52.958;-7.470;2023-12-29T03:39:49;99012.81;;;5.51;100.00
64253;BME280;50592;52.958;-7.470;2023-12-29T03:42:15;99026.56;;;5.53;100.00
64253;BME280;50592;52.958;-7.470;2023-12-29T03:44:44;99029.91;;;5.45;100.00
64253;BME280;50592;52.958;-7.470;2023-12-29T03:47:13;99031.47;;;5.38;100.00
64253;BME280;50592;52.958;-7.470;2023-12-29T03:49:43;99022.94;;;5.36;100.00
64253;BME280;50592;52.958;-7.470;2023-12-29T03:52:12;99031.91;;;5.33;100.00
64253;BME280;50592;52.958;-7.470;2023-12-29T03:54:38;99022.69;;;5.29;100.00
64253;BME280;50592;52.958;-7.470;2023-12-29T03:57:04;99022.69;;;5.29;100.00
64253;BME280;50592;52.958;-7.470;2023-12-29T03:59:30;99029.31;;;5.33;100.00
64253;BME280;50592;52.958;-7.470;2023-12-29T04:01:56;99022.53;;;5.30;100.00
64253;BME280;50592;52.958;-7.470;2023-12-29T04:04:22;99019.56;;;5.25;100.00
64253;BME280;50592;52.958;-7.470;2023-12-29T04:06:49;99019.00;;;5.21;100.00
64253;BME280;50592;52.958;-7.470;2023-12-29T04:09:15;99015.41;;;5.22;100.00
64253;BME280;50592;52.958;-7.470;2023-12-29T04:11:41;99030.84;;;5.26;100.00
64253;BME280;50592;52.958;-7.470;2023-12-29T04:14:07;99024.94;;;5.24;100.00
64253;BME280;50592;52.958;-7.470;2023-12-29T04:16:36;99027.13;;;5.28;100.00
64253;BME280;50592;52.958;-7.470;2023-12-29T04:19:06;99020.22;;;5.27;100.00
64253;BME280;50592;52.958;-7.470;2023-12-29T04:21:32;99017.44;;;5.29;100.00
64253;BME280;50592;52.958;-7.470;2023-12-29T04:23:57;99032.47;;;5.37;100.00
64253;BME280;50592;52.958;-7.470;2023-12-29T04:26:23;99032.84;;;5.42;100.00
64253;BME280;50592;52.958;-7.470;2023-12-29T04:28:49;99041.53;;;5.42;100.00
64253;BME280;50592;52.958;-7.470;2023-12-29T04:31:15;99029.84;;;5.37;100.00
64253;BME280;50592;52.958;-7.470;2023-12-29T04:33:41;99039.59;;;5.44;100.00
64253;BME280;50592;52.958;-7.470;2023-12-29T04:36:10;99031.44;;;5.48;100.00
64253;BME280;50592;52.958;-7.470;2023-12-29T04:38:39;99024.03;;;5.43;100.00
64253;BME280;50592;52.958;-7.470;2023-12-29T04:41:05;99029.41;;;5.41;100.00
64253;BME280;50592;52.958;-7.470;2023-12-29T04:43:31;99033.38;;;5.45;100.00
64253;BME280;50592;52.958;-7.470;2023-12-29T04:45:56;99027.25;;;5.55;100.00
64253;BME280;50592;52.958;-7.470;2023-12-29T04:48:25;99036.31;;;5.61;100.00
64253;BME280;50592;52.958;-7.470;2023-12-29T04:50:51;99025.72;;;5.62;100.00
64253;BME280;50592;52.958;-7.470;2023-12-29T04:53:17;99026.91;;;5.68;100.00
64253;BME280;50592;52.958;-7.470;2023-12-29T04:55:43;99024.56;;;5.65;100.00
64253;BME280;50592;52.958;-7.470;2023-12-29T04:58:09;99039.03;;;5.69;100.00
64253;BME280;50592;52.958;-7.470;2023-12-29T05:00:35;99033.50;;;5.72;100.00
64253;BME280;50592;52.958;-7.470;2023-12-29T05:03:01;99021.66;;;5.68;100.00
64253;BME280;50592;52.958;-7.470;2023-12-29T05:05:27;99028.97;;;5.64;100.00
64253;BME280;50592;52.958;-7.470;2023-12-29T05:07:52;99030.81;;;5.64;100.00
64253;BME280;50592;52.958;-7.470;2023-12-29T05:10:21;99030.50;;;5.67;100.00
64253;BME280;50592;52.958;-7.470;2023-12-29T05:12:47;99032.59;;;5.63;100.00
64253;BME280;50592;52.958;-7.470;2023-12-29T05:15:16;99023.09;;;5.62;100.00
64253;BME280;50592;52.958;-7.470;2023-12-29T05:17:42;99023.19;;;5.61;100.00
64253;BME280;50592;52.958;-7.470;2023-12-29T05:20:12;99026.38;;;5.64;100.00
64253;BME280;50592;52.958;-7.470;2023-12-29T05:22:38;99015.56;;;5.49;100.00
64253;BME280;50592;52.958;-7.470;2023-12-29T05:25:04;99027.25;;;5.55;100.00
64253;BME280;50592;52.958;-7.470;2023-12-29T05:27:30;99018.41;;;5.56;100.00
64253;BME280;50592;52.958;-7.470;2023-12-29T05:29:57;99026.81;;;5.59;100.00
64253;BME280;50592;52.958;-7.470;2023-12-29T05:32:23;99021.31;;;5.53;100.00
64253;BME280;50592;52.958;-7.470;2023-12-29T05:34:49;99027.78;;;5.58;100.00
64253;BME280;50592;52.958;-7.470;2023-12-29T05:37:15;99025.31;;;5.57;100.00
64253;BME280;50592;52.958;-7.470;2023-12-29T05:39:44;99025.47;;;5.55;100.00
64253;BME280;50592;52.958;-7.470;2023-12-29T05:42:09;99020.22;;;5.55;100.00
64253;BME280;50592;52.958;-7.470;2023-12-29T05:44:36;99025.97;;;5.59;100.00
64253;BME280;50592;52.958;-7.470;2023-12-29T05:47:02;99025.16;;;5.58;100.00
64253;BME280;50592;52.958;-7.470;2023-12-29T05:49:28;99024.34;;;5.58;100.00
64253;BME280;50592;52.958;-7.470;2023-12-29T05:51:55;99027.09;;;5.56;100.00
64253;BME280;50592;52.958;-7.470;2023-12-29T05:54:21;99030.84;;;5.54;100.00
64253;BME280;50592;52.958;-7.470;2023-12-29T05:56:47;99034.72;;;5.50;100.00
64253;BME280;50592;52.958;-7.470;2023-12-29T05:59:13;99039.31;;;5.48;100.00
64253;BME280;50592;52.958;-7.470;2023-12-29T06:01:39;99030.66;;;5.37;100.00
64253;BME280;50592;52.958;-7.470;2023-12-29T06:04:04;99035.13;;;5.27;100.00
64253;BME280;50592;52.958;-7.470;2023-12-29T06:06:30;99033.88;;;5.21;100.00
64253;BME280;50592;52.958;-7.470;2023-12-29T06:08:56;99039.19;;;5.11;100.00
64253;BME280;50592;52.958;-7.470;2023-12-29T06:11:22;99047.84;;;5.12;100.00
64253;BME280;50592;52.958;-7.470;2023-12-29T06:13:47;99045.22;;;5.12;100.00
64253;BME280;50592;52.958;-7.470;2023-12-29T06:16:20;99048.53;;;5.14;100.00
64253;BME280;50592;52.958;-7.470;2023-12-29T06:18:46;99033.97;;;5.01;100.00
64253;BME280;50592;52.958;-7.470;2023-12-29T06:21:12;99048.72;;;5.02;100.00
64253;BME280;50592;52.958;-7.470;2023-12-29T06:23:38;99045.56;;;4.99;100.00
64253;BME280;50592;52.958;-7.470;2023-12-29T06:26:04;99045.19;;;4.93;100.00
64253;BME280;50592;52.958;-7.470;2023-12-29T06:28:30;99049.03;;;4.89;100.00
64253;BME280;50592;52.958;-7.470;2023-12-29T06:30:56;99054.25;;;4.89;100.00
64253;BME280;50592;52.958;-7.470;2023-12-29T06:33:22;99060.50;;;4.78;100.00
64253;BME280;50592;52.958;-7.470;2023-12-29T06:35:48;99051.72;;;4.69;100.00
64253;BME280;50592;52.958;-7.470;2023-12-29T06:38:14;99053.91;;;4.64;100.00
64253;BME280;50592;52.958;-7.470;2023-12-29T06:40:40;99055.03;;;4.62;100.00
64253;BME280;50592;52.958;-7.470;2023-12-29T06:43:05;99057.22;;;4.56;100.00
64253;BME280;50592;52.958;-7.470;2023-12-29T06:45:31;99062.03;;;4.51;100.00
64253;BME280;50592;52.958;-7.470;2023-12-29T06:47:57;99059.72;;;4.48;100.00
64253;BME280;50592;52.958;-7.470;2023-12-29T06:50:23;99057.50;;;4.43;100.00
64253;BME280;50592;52.958;-7.470;2023-12-29T06:52:49;99063.72;;;4.42;100.00
64253;BME280;50592;52.958;-7.470;2023-12-29T06:55:15;99060.13;;;4.43;100.00
64253;BME280;50592;52.958;-7.470;2023-12-29T06:57:40;99065.91;;;4.47;100.00
64253;BME280;50592;52.958;-7.470;2023-12-29T07:00:06;99071.81;;;4.49;100.00
64253;BME280;50592;52.958;-7.470;2023-12-29T07:02:32;99079.00;;;4.47;100.00
64253;BME280;50592;52.958;-7.470;2023-12-29T07:04:58;99078.03;;;4.48;100.00
64253;BME280;50592;52.958;-7.470;2023-12-29T07:07:24;99081.47;;;4.49;100.00
64253;BME280;50592;52.958;-7.470;2023-12-29T07:09:50;99086.44;;;4.52;100.00
64253;BME280;50592;52.958;-7.470;2023-12-29T07:12:16;99078.59;;;4.52;100.00
64253;BME280;50592;52.958;-7.470;2023-12-29T07:14:42;99079.81;;;4.47;100.00
64253;BME280;50592;52.958;-7.470;2023-12-29T07:17:08;99093.59;;;4.50;100.00
64253;BME280;50592;52.958;-7.470;2023-12-29T07:19:34;99091.81;;;4.50;100.00
64253;BME280;50592;52.958;-7.470;2023-12-29T07:22:05;99094.44;;;4.50;100.00
64253;BME280;50592;52.958;-7.470;2023-12-29T07:24:34;99089.47;;;4.47;100.00
64253;BME280;50592;52.958;-7.470;2023-12-29T07:27:01;99098.69;;;4.41;100.00
64253;BME280;50592;52.958;-7.470;2023-12-29T07:29:26;99099.94;;;4.37;100.00
64253;BME280;50592;52.958;-7.470;2023-12-29T07:31:53;99101.97;;;4.33;100.00
64253;BME280;50592;52.958;-7.470;2023-12-29T07:34:19;99099.63;;;4.30;100.00
64253;BME280;50592;52.958;-7.470;2023-12-29T07:36:45;99100.06;;;4.26;100.00
64253;BME280;50592;52.958;-7.470;2023-12-29T07:39:11;99099.91;;;4.17;100.00
64253;BME280;50592;52.958;-7.470;2023-12-29T07:41:41;99104.31;;;4.17;100.00
64253;BME280;50592;52.958;-7.470;2023-12-29T07:44:08;99111.88;;;4.10;100.00
64253;BME280;50592;52.958;-7.470;2023-12-29T07:46:35;99112.03;;;4.08;100.00
64253;BME280;50592;52.958;-7.470;2023-12-29T07:49:01;99113.00;;;4.07;100.00
64253;BME280;50592;52.958;-7.470;2023-12-29T07:51:27;99101.69;;;4.07;100.00
64253;BME280;50592;52.958;-7.470;2023-12-29T07:53:52;99108.03;;;4.04;100.00
64253;BME280;50592;52.958;-7.470;2023-12-29T07:56:18;99110.06;;;4.01;100.00
64253;BME280;50592;52.958;-7.470;2023-12-29T07:58:45;99108.72;;;3.96;100.00
64253;BME280;50592;52.958;-7.470;2023-12-29T08:01:10;99109.91;;;3.92;100.00
64253;BME280;50592;52.958;-7.470;2023-12-29T08:03:36;99117.75;;;3.92;100.00
64253;BME280;50592;52.958;-7.470;2023-12-29T08:06:02;99104.97;;;3.89;100.00
64253;BME280;50592;52.958;-7.470;2023-12-29T08:08:28;99107.56;;;3.89;100.00
64253;BME280;50592;52.958;-7.470;2023-12-29T08:10:54;99111.59;;;3.93;100.00
64253;BME280;50592;52.958;-7.470;2023-12-29T08:13:21;99111.19;;;3.98;100.00
64253;BME280;50592;52.958;-7.470;2023-12-29T08:15:47;99104.28;;;3.97;100.00
64253;BME280;50592;52.958;-7.470;2023-12-29T08:18:13;99107.31;;;4.02;100.00
64253;BME280;50592;52.958;-7.470;2023-12-29T08:20:39;99102.53;;;4.07;100.00
64253;BME280;50592;52.958;-7.470;2023-12-29T08:23:04;99099.78;;;4.09;100.00
64253;BME280;50592;52.958;-7.470;2023-12-29T08:25:30;99094.94;;;4.14;100.00
64253;BME280;50592;52.958;-7.470;2023-12-29T08:27:56;99110.50;;;4.26;100.00
64253;BME280;50592;52.958;-7.470;2023-12-29T08:30:22;99123.47;;;4.37;100.00
64253;BME280;50592;52.958;-7.470;2023-12-29T08:32:48;99107.63;;;4.39;100.00
64253;BME280;50592;52.958;-7.470;2023-12-29T08:35:14;99106.53;;;4.51;100.00
64253;BME280;50592;52.958;-7.470;2023-12-29T08:37:40;99120.19;;;4.55;100.00
64253;BME280;50592;52.958;-7.470;2023-12-29T08:40:06;99115.50;;;4.58;100.00
64253;BME280;50592;52.958;-7.470;2023-12-29T08:42:33;99119.34;;;4.64;100.00
64253;BME280;50592;52.958;-7.470;2023-12-29T08:44:59;99116.59;;;4.66;100.00
64253;BME280;50592;52.958;-7.470;2023-12-29T08:47:25;99121.81;;;4.66;100.00
64253;BME280;50592;52.958;-7.470;2023-12-29T08:49:51;99131.03;;;4.70;100.00
64253;BME280;50592;52.958;-7.470;2023-12-29T08:52:20;99138.34;;;4.76;100.00
64253;BME280;50592;52.958;-7.470;2023-12-29T08:54:46;99143.31;;;4.79;100.00
64253;BME280;50592;52.958;-7.470;2023-12-29T08:57:11;99152.13;;;4.88;100.00
64253;BME280;50592;52.958;-7.470;2023-12-29T08:59:37;99163.81;;;4.94;100.00
64253;BME280;50592;52.958;-7.470;2023-12-29T09:02:03;99166.00;;;4.99;100.00
64253;BME280;50592;52.958;-7.470;2023-12-29T09:04:29;99168.91;;;5.05;100.00
64253;BME280;50592;52.958;-7.470;2023-12-29T09:06:55;99173.84;;;5.18;100.00
64253;BME280;50592;52.958;-7.470;2023-12-29T09:09:21;99186.81;;;5.20;100.00
64253;BME280;50592;52.958;-7.470;2023-12-29T09:11:47;99194.53;;;5.21;100.00
64253;BME280;50592;52.958;-7.470;2023-12-29T09:14:13;99185.31;;;5.17;100.00
64253;BME280;50592;52.958;-7.470;2023-12-29T09:16:39;99209.13;;;5.24;100.00
64253;BME280;50592;52.958;-7.470;2023-12-29T09:19:06;99235.22;;;5.16;100.00
64253;BME280;50592;52.958;-7.470;2023-12-29T09:21:32;99260.16;;;5.10;100.00
64253;BME280;50592;52.958;-7.470;2023-12-29T09:23:57;99260.56;;;5.05;100.00
64253;BME280;50592;52.958;-7.470;2023-12-29T09:26:24;99268.13;;;4.99;100.00
64253;BME280;50592;52.958;-7.470;2023-12-29T09:28:49;99267.88;;;4.82;100.00
64253;BME280;50592;52.958;-7.470;2023-12-29T09:31:15;99274.47;;;4.66;100.00
64253;BME280;50592;52.958;-7.470;2023-12-29T09:33:41;99270.31;;;4.54;100.00
64253;BME280;50592;52.958;-7.470;2023-12-29T09:36:07;99271.34;;;4.41;100.00
64253;BME280;50592;52.958;-7.470;2023-12-29T09:38:33;99278.66;;;4.38;100.00
64253;BME280;50592;52.958;-7.470;2023-12-29T09:41:04;99287.84;;;4.22;100.00
64253;BME280;50592;52.958;-7.470;2023-12-29T09:43:31;99281.53;;;4.03;100.00
64253;BME280;50592;52.958;-7.470;2023-12-29T09:45:58;99289.09;;;3.96;100.00
64253;BME280;50592;52.958;-7.470;2023-12-29T09:48:26;99291.53;;;3.88;100.00
64253;BME280;50592;52.958;-7.470;2023-12-29T09:50:52;99286.00;;;3.81;100.00
64253;BME280;50592;52.958;-7.470;2023-12-29T09:53:20;99283.13;;;3.84;100.00
64253;BME280;50592;52.958;-7.470;2023-12-29T09:55:50;99292.72;;;3.84;100.00
64253;BME280;50592;52.958;-7.470;2023-12-29T09:58:17;99293.00;;;3.81;100.00
64253;BME280;50592;52.958;-7.470;2023-12-29T10:00:46;99303.06;;;3.85;100.00
64253;BME280;50592;52.958;-7.470;2023-12-29T10:03:14;99293.31;;;3.88;100.00
64253;BME280;50592;52.958;-7.470;2023-12-29T10:05:40;99295.94;;;3.88;100.00
64253;BME280;50592;52.958;-7.470;2023-12-29T10:08:07;99299.38;;;3.88;100.00
64253;BME280;50592;52.958;-7.470;2023-12-29T10:10:36;99296.63;;;3.90;100.00
64253;BME280;50592;52.958;-7.470;2023-12-29T10:13:06;99278.34;;;3.90;100.00
64253;BME280;50592;52.958;-7.470;2023-12-29T10:15:38;99246.16;;;3.99;100.00
64253;BME280;50592;52.958;-7.470;2023-12-29T10:23:32;99260.81;;;4.12;100.00
64253;BME280;50592;52.958;-7.470;2023-12-29T10:26:02;99274.59;;;4.14;100.00
64253;BME280;50592;52.958;-7.470;2023-12-29T10:28:29;99282.31;;;4.15;100.00
64253;BME280;50592;52.958;-7.470;2023-12-29T10:30:54;99288.91;;;4.19;100.00
64253;BME280;50592;52.958;-7.470;2023-12-29T10:33:21;99287.84;;;4.22;100.00
64253;BME280;50592;52.958;-7.470;2023-12-29T10:35:57;99278.50;;;4.29;100.00
64253;BME280;50592;52.958;-7.470;2023-12-29T10:38:28;99270.91;;;4.26;100.00
64253;BME280;50592;52.958;-7.470;2023-12-29T10:40:54;99262.53;;;4.32;100.00
64253;BME280;50592;52.958;-7.470;2023-12-29T10:43:23;99265.06;;;4.44;100.00
64253;BME280;50592;52.958;-7.470;2023-12-29T10:46:06;99287.94;;;4.52;100.00
64253;BME280;50592;52.958;-7.470;2023-12-29T10:48:33;99283.78;;;4.49;100.00
64253;BME280;50592;52.958;-7.470;2023-12-29T10:51:01;99297.03;;;4.57;100.00
64253;BME280;50592;52.958;-7.470;2023-12-29T10:53:41;99291.66;;;4.59;100.00
64253;BME280;50592;52.958;-7.470;2023-12-29T10:57:12;99290.84;;;4.58;100.00
64253;BME280;50592;52.958;-7.470;2023-12-29T10:59:54;99299.41;;;4.70;100.00
64253;BME280;50592;52.958;-7.470;2023-12-29T11:02:28;99304.91;;;4.67;100.00
64253;BME280;50592;52.958;-7.470;2023-12-29T11:05:07;99306.94;;;4.64;100.00
64253;BME280;50592;52.958;-7.470;2023-12-29T11:10:31;99328.75;;;4.74;100.00
64253;BME280;50592;52.958;-7.470;2023-12-29T11:13:21;99315.50;;;4.66;100.00
64253;BME280;50592;52.958;-7.470;2023-12-29T11:15:50;99318.97;;;4.76;100.00
64253;BME280;50592;52.958;-7.470;2023-12-29T11:18:35;99321.03;;;4.72;100.00
64253;BME280;50592;52.958;-7.470;2023-12-29T11:21:20;99312.22;;;4.74;100.00
64253;BME280;50592;52.958;-7.470;2023-12-29T11:23:48;99302.28;;;4.67;100.00
64253;BME280;50592;52.958;-7.470;2023-12-29T11:26:15;99313.19;;;4.72;100.00
64253;BME280;50592;52.958;-7.470;2023-12-29T11:28:46;99319.94;;;4.75;100.00
64253;BME280;50592;52.958;-7.470;2023-12-29T11:31:12;99321.44;;;4.68;100.00
64253;BME280;50592;52.958;-7.470;2023-12-29T11:33:53;99304.19;;;4.65;100.00
64253;BME280;50592;52.958;-7.470;2023-12-29T11:36:30;99310.28;;;4.66;100.00
64253;BME280;50592;52.958;-7.470;2023-12-29T11:39:10;99304.38;;;4.74;100.00
64253;BME280;50592;52.958;-7.470;2023-12-29T11:42:14;99313.34;;;4.91;100.00
64253;BME280;50592;52.958;-7.470;2023-12-29T11:44:50;99310.47;;;5.04;100.00
64253;BME280;50592;52.958;-7.470;2023-12-29T11:47:34;99320.41;;;5.20;100.00
64253;BME280;50592;52.958;-7.470;2023-12-29T11:50:02;99319.72;;;5.38;100.00
64253;BME280;50592;52.958;-7.470;2023-12-29T11:52:37;99327.69;;;5.56;100.00
64253;BME280;50592;52.958;-7.470;2023-12-29T11:55:10;99323.28;;;5.66;100.00
64253;BME280;50592;52.958;-7.470;2023-12-29T11:57:39;99305.31;;;5.81;100.00
64253;BME280;50592;52.958;-7.470;2023-12-29T12:00:18;99310.97;;;5.87;100.00
64253;BME280;50592;52.958;-7.470;2023-12-29T12:02:44;99295.22;;;5.87;100.00
64253;BME280;50592;52.958;-7.470;2023-12-29T12:05:17;99314.25;;;5.99;100.00
64253;BME280;50592;52.958;-7.470;2023-12-29T12:07:57;99302.53;;;5.93;100.00
64253;BME280;50592;52.958;-7.470;2023-12-29T12:12:55;99319.13;;;5.83;100.00
64253;BME280;50592;52.958;-7.470;2023-12-29T12:17:54;99333.44;;;5.89;100.00
64253;BME280;50592;52.958;-7.470;2023-12-29T12:20:20;99330.31;;;5.86;100.00
64253;BME280;50592;52.958;-7.470;2023-12-29T12:22:50;99332.34;;;5.92;100.00
64253;BME280;50592;52.958;-7.470;2023-12-29T12:25:25;99332.34;;;6.02;100.00
64253;BME280;50592;52.958;-7.470;2023-12-29T12:27:52;99320.59;;;6.06;100.00
64253;BME280;50592;52.958;-7.470;2023-12-29T12:30:19;99329.66;;;6.22;100.00
64253;BME280;50592;52.958;-7.470;2023-12-29T12:32:45;99312.81;;;6.24;100.00
64253;BME280;50592;52.958;-7.470;2023-12-29T12:35:14;99310.69;;;6.38;100.00
64253;BME280;50592;52.958;-7.470;2023-12-29T12:37:47;99302.66;;;6.39;100.00
64253;BME280;50592;52.958;-7.470;2023-12-29T12:40:27;99303.38;;;6.60;100.00
64253;BME280;50592;52.958;-7.470;2023-12-29T12:42:53;99304.38;;;6.58;100.00
64253;BME280;50592;52.958;-7.470;2023-12-29T12:45:20;99311.25;;;6.60;100.00
64253;BME280;50592;52.958;-7.470;2023-12-29T12:47:54;99305.78;;;6.53;100.00
64253;BME280;50592;52.958;-7.470;2023-12-29T12:50:24;99304.00;;;6.43;100.00
64253;BME280;50592;52.958;-7.470;2023-12-29T12:52:50;99304.56;;;6.47;100.00
64253;BME280;50592;52.958;-7.470;2023-12-29T12:55:18;99298.34;;;6.48;100.00
64253;BME280;50592;52.958;-7.470;2023-12-29T12:57:47;99302.88;;;6.56;100.00
64253;BME280;50592;52.958;-7.470;2023-12-29T13:00:13;99310.06;;;6.54;100.00
64253;BME280;50592;52.958;-7.470;2023-12-29T13:02:39;99301.53;;;6.42;100.00
64253;BME280;50592;52.958;-7.470;2023-12-29T13:05:06;99311.75;;;6.45;100.00
64253;BME280;50592;52.958;-7.470;2023-12-29T13:07:34;99328.16;;;6.57;100.00
64253;BME280;50592;52.958;-7.470;2023-12-29T13:10:02;99324.25;;;6.61;100.00
64253;BME280;50592;52.958;-7.470;2023-12-29T13:12:29;99333.53;;;6.55;100.00
64253;BME280;50592;52.958;-7.470;2023-12-29T13:15:05;99333.94;;;6.61;100.00
64253;BME280;50592;52.958;-7.470;2023-12-29T13:17:33;99326.88;;;6.61;100.00
64253;BME280;50592;52.958;-7.470;2023-12-29T13:19:59;99319.53;;;6.65;100.00
64253;BME280;50592;52.958;-7.470;2023-12-29T13:22:26;99315.88;;;6.76;100.00
64253;BME280;50592;52.958;-7.470;2023-12-29T13:24:54;99314.03;;;6.86;100.00
64253;BME280;50592;52.958;-7.470;2023-12-29T13:27:21;99308.34;;;6.91;100.00
64253;BME280;50592;52.958;-7.470;2023-12-29T13:29:48;99299.41;;;7.02;100.00
64253;BME280;50592;52.958;-7.470;2023-12-29T13:32:27;99295.94;;;7.01;100.00
64253;BME280;50592;52.958;-7.470;2023-12-29T13:41:04;99304.13;;;6.98;100.00
64253;BME280;50592;52.958;-7.470;2023-12-29T13:43:33;99299.31;;;6.93;100.00
64253;BME280;50592;52.958;-7.470;2023-12-29T13:46:05;99314.38;;;6.91;100.00
64253;BME280;50592;52.958;-7.470;2023-12-29T13:48:34;99306.00;;;6.88;100.00
64253;BME280;50592;52.958;-7.470;2023-12-29T13:51:03;99310.88;;;6.82;100.00